ADDS TAF Board (Experimental) INFO Settings
IDs: Format: Expanded Condensed

KIAH - Houston/Bush Intl, TX, US

Issued at 0938 UTC 03 Jul 2015
Updated at: 1042 UTC 03 Jul 2015
Time0953Z 03/11Z 03/12Z 03/13Z 03/14Z 03/15Z 03/16Z 03/17Z 03/18Z 03/19Z 03/20Z 03/21Z 03/22Z 03/23Z
Type OBS PRVL PRVL PRVL PRVL PRVL PRVL PRVL PRVL PRVL PRVL PRVL PRVL PRVL
VIS 8 >6 >6 >6 >6 >6 >6 >6 >6 >6 >6 >6 >6 >6
CIG 250 250 250 250 250 250 250 250 250 250 250 250 250 250
Cover BKN BKN BKN BKN BKN BKN BKN BKN BKN BKN BKN BKN BKN BKN
FltCat VFR VFR VFR VFR VFR VFR VFR VFR VFR VFR VFR VFR VFR VFR
WX -- -- VCSH VCSH VCSH -- -- -- -- -- -- -- -- --
WDir 190 VRB 170 170 170 180 180 180 180 180 180 180 180 180
WSpd 3 0 3 3 3 12 12 12 12 12 12 12 12 12
WGst -- -- -- -- -- -- -- -- -- -- -- -- -- --
R08/26
XWnd -3 VRB -3 -3 -3 -12 -12 -12 -12 -12 -12 -12 -12 -12
HWnd -1 VRB 1 1 1 0 0 0 0 0 0 0 0 0
R09/27
XWnd -3 VRB -3 -3 -3 -12 -12 -12 -12 -12 -12 -12 -12 -12
HWnd -1 VRB 1 1 1 0 0 0 0 0 0 0 0 0
R15/33
XWnd -2 VRB -1 -1 -1 -6 -6 -6 -6 -6 -6 -6 -6 -6
HWnd 2 VRB 3 3 3 11 11 11 11 11 11 11 11 11

NOTE: TEMPO conditions in [brackets]. Keep in mind TEMPO conditions might be better (lower impact) than prevailing conditions.

Raw TAF
KIAH 030938Z 0310/0412 00000KT P6SM FEW020 BKN250
  FM031130 17003KT P6SM VCSH SCT022 BKN250
  FM031500 18012KT P6SM SCT035 BKN250
  FM040000 16007KT P6SM FEW040 SCT250


Raw METAR
KIAH 030953Z 19003KT 8SM FEW020 BKN250 24/24 A3000 RMK AO2 SLP157 T02440239
KIAH 030853Z 00000KT 8SM FEW020 BKN250 24/24 A3000 RMK AO2 SLP158 T02440239 50001
KIAH 030753Z 18003KT 8SM FEW020 BKN250 24/24 A3001 RMK AO2 SLP159 T02440239

METAR Board
Radar Display
Forecast Discussion

TAF Board Legend

Potential Impact
Threat None Slight Moderate High
Visibility (sm) ≥5.1 5.1>X≥3 3>X≥1 <1
Ceiling (100 ft) ≥30.1 30.1>X≥10 10>X≥5 <5
Wind Speed (kt) <10 10≤X<20 20≤X<30 ≥30
Wind Gust (kt) <15 15≤X<25 25≤X<35 ≥35
Weather No Wx Reported VCTS,-TS,-FZRA,SN TS,FZRA +TS,+FZRA,+SN